sensor_id;sensor_type;location;lat;lon;timestamp;pressure;altitude;pressure_sealevel;temperature;humidity
28267;BME280;15525;45.568;5.448;2022-10-16T00:00:28;98020.22;;;18.98;55.83
28267;BME280;15525;45.568;5.448;2022-10-16T00:02:53;98027.94;;;18.79;56.67
28267;BME280;15525;45.568;5.448;2022-10-16T00:05:18;98020.34;;;18.55;57.30
28267;BME280;15525;45.568;5.448;2022-10-16T00:07:44;98024.44;;;18.78;57.02
28267;BME280;15525;45.568;5.448;2022-10-16T00:10:09;98017.88;;;18.96;56.67
28267;BME280;15525;45.568;5.448;2022-10-16T00:12:34;98030.59;;;19.04;56.41
28267;BME280;15525;45.568;5.448;2022-10-16T00:15:00;98030.94;;;19.03;56.52
28267;BME280;15525;45.568;5.448;2022-10-16T00:17:25;98033.47;;;18.99;56.45
28267;BME280;15525;45.568;5.448;2022-10-16T00:19:51;98035.59;;;18.94;56.52
28267;BME280;15525;45.568;5.448;2022-10-16T00:22:16;98033.53;;;18.82;56.63
28267;BME280;15525;45.568;5.448;2022-10-16T00:24:41;98028.13;;;18.65;56.74
28267;BME280;15525;45.568;5.448;2022-10-16T00:27:07;98025.88;;;18.67;56.83
28267;BME280;15525;45.568;5.448;2022-10-16T00:29:32;98037.22;;;18.69;56.81
28267;BME280;15525;45.568;5.448;2022-10-16T00:31:58;98054.31;;;18.53;57.38
28267;BME280;15525;45.568;5.448;2022-10-16T00:34:23;98038.03;;;18.44;57.73
28267;BME280;15525;45.568;5.448;2022-10-16T00:36:48;98053.34;;;18.40;57.71
28267;BME280;15525;45.568;5.448;2022-10-16T00:39:14;98042.97;;;18.51;57.86
28267;BME280;15525;45.568;5.448;2022-10-16T00:41:39;98050.16;;;18.55;57.48
28267;BME280;15525;45.568;5.448;2022-10-16T00:47:15;98056.53;;;18.51;57.43
28267;BME280;15525;45.568;5.448;2022-10-16T00:49:42;98055.06;;;18.28;57.86
28267;BME280;15525;45.568;5.448;2022-10-16T00:52:09;98054.00;;;18.37;58.19
28267;BME280;15525;45.568;5.448;2022-10-16T00:54:35;98062.59;;;18.39;58.08
28267;BME280;15525;45.568;5.448;2022-10-16T00:57:03;98070.56;;;18.44;57.87
28267;BME280;15525;45.568;5.448;2022-10-16T00:59:33;98056.84;;;18.41;57.95
28267;BME280;15525;45.568;5.448;2022-10-16T01:02:01;98073.44;;;18.48;57.77
28267;BME280;15525;45.568;5.448;2022-10-16T01:04:32;98071.69;;;18.43;58.07
28267;BME280;15525;45.568;5.448;2022-10-16T01:15:59;98069.44;;;18.45;58.30
28267;BME280;15525;45.568;5.448;2022-10-16T01:18:33;98074.19;;;18.23;58.29
28267;BME280;15525;45.568;5.448;2022-10-16T01:21:24;98080.47;;;18.49;58.80
28267;BME280;15525;45.568;5.448;2022-10-16T01:29:54;98102.25;;;18.18;58.80
28267;BME280;15525;45.568;5.448;2022-10-16T01:38:03;98095.75;;;18.53;58.63
28267;BME280;15525;45.568;5.448;2022-10-16T01:40:28;98091.78;;;18.59;57.93
28267;BME280;15525;45.568;5.448;2022-10-16T01:43:05;98099.44;;;18.74;57.88
28267;BME280;15525;45.568;5.448;2022-10-16T01:45:34;98102.63;;;18.68;58.13
28267;BME280;15525;45.568;5.448;2022-10-16T01:48:02;98104.69;;;18.62;58.02
28267;BME280;15525;45.568;5.448;2022-10-16T01:50:32;98095.13;;;18.65;58.02
28267;BME280;15525;45.568;5.448;2022-10-16T01:52:59;98101.19;;;18.70;57.70
28267;BME280;15525;45.568;5.448;2022-10-16T01:55:33;98101.47;;;18.77;57.69
28267;BME280;15525;45.568;5.448;2022-10-16T01:58:01;98101.31;;;19.08;57.20
28267;BME280;15525;45.568;5.448;2022-10-16T02:00:29;98079.00;;;18.60;57.30
28267;BME280;15525;45.568;5.448;2022-10-16T02:02:56;98112.53;;;18.55;57.89
28267;BME280;15525;45.568;5.448;2022-10-16T02:05:43;98112.03;;;18.45;58.42
28267;BME280;15525;45.568;5.448;2022-10-16T02:08:10;98097.44;;;18.24;58.52
28267;BME280;15525;45.568;5.448;2022-10-16T02:10:37;98105.59;;;18.15;58.66
28267;BME280;15525;45.568;5.448;2022-10-16T02:13:13;98101.28;;;18.23;59.04
28267;BME280;15525;45.568;5.448;2022-10-16T02:15:41;98096.84;;;18.27;58.53
28267;BME280;15525;45.568;5.448;2022-10-16T02:18:07;98076.59;;;18.24;58.49
28267;BME280;15525;45.568;5.448;2022-10-16T02:20:40;98089.22;;;18.37;58.14
28267;BME280;15525;45.568;5.448;2022-10-16T02:23:12;98104.22;;;18.43;58.09
28267;BME280;15525;45.568;5.448;2022-10-16T02:25:44;98069.41;;;18.28;58.16
28267;BME280;15525;45.568;5.448;2022-10-16T02:28:24;98097.03;;;18.47;58.13
28267;BME280;15525;45.568;5.448;2022-10-16T02:31:07;98091.91;;;18.54;58.03
28267;BME280;15525;45.568;5.448;2022-10-16T02:33:35;98090.19;;;18.50;58.00
28267;BME280;15525;45.568;5.448;2022-10-16T02:36:02;98068.31;;;18.38;57.85
28267;BME280;15525;45.568;5.448;2022-10-16T02:38:29;98096.06;;;18.43;58.06
28267;BME280;15525;45.568;5.448;2022-10-16T02:40:56;98098.91;;;18.30;58.37
28267;BME280;15525;45.568;5.448;2022-10-16T02:43:21;98092.97;;;18.02;59.24
28267;BME280;15525;45.568;5.448;2022-10-16T02:45:46;98092.84;;;18.16;59.30
28267;BME280;15525;45.568;5.448;2022-10-16T02:48:12;98096.22;;;18.30;58.86
28267;BME280;15525;45.568;5.448;2022-10-16T02:50:37;98095.13;;;18.39;58.52
28267;BME280;15525;45.568;5.448;2022-10-16T02:53:02;98094.19;;;18.44;58.31
28267;BME280;15525;45.568;5.448;2022-10-16T02:55:28;98081.56;;;18.39;58.42
28267;BME280;15525;45.568;5.448;2022-10-16T02:57:53;98092.91;;;18.41;58.05
28267;BME280;15525;45.568;5.448;2022-10-16T03:00:19;98094.94;;;18.44;58.15
28267;BME280;15525;45.568;5.448;2022-10-16T03:02:45;98094.16;;;18.35;58.31
28267;BME280;15525;45.568;5.448;2022-10-16T03:05:12;98100.50;;;18.31;58.66
28267;BME280;15525;45.568;5.448;2022-10-16T03:07:37;98110.06;;;18.28;58.55
28267;BME280;15525;45.568;5.448;2022-10-16T03:10:03;98109.56;;;18.26;58.47
28267;BME280;15525;45.568;5.448;2022-10-16T03:12:29;98113.56;;;18.20;58.46
28267;BME280;15525;45.568;5.448;2022-10-16T03:14:55;98104.47;;;18.16;58.72
28267;BME280;15525;45.568;5.448;2022-10-16T03:17:22;98102.56;;;18.17;58.76
28267;BME280;15525;45.568;5.448;2022-10-16T03:19:47;98094.13;;;18.27;58.43
28267;BME280;15525;45.568;5.448;2022-10-16T03:22:12;98105.44;;;18.29;58.32
28267;BME280;15525;45.568;5.448;2022-10-16T03:24:38;98090.13;;;18.24;58.41
28267;BME280;15525;45.568;5.448;2022-10-16T03:27:03;98091.88;;;18.20;58.66
28267;BME280;15525;45.568;5.448;2022-10-16T03:29:28;98112.13;;;18.23;58.42
28267;BME280;15525;45.568;5.448;2022-10-16T03:31:56;98105.59;;;18.24;58.47
28267;BME280;15525;45.568;5.448;2022-10-16T03:34:21;98095.88;;;18.23;58.44
28267;BME280;15525;45.568;5.448;2022-10-16T03:36:47;98106.72;;;18.23;58.42
28267;BME280;15525;45.568;5.448;2022-10-16T03:39:12;98116.63;;;18.27;58.38
28267;BME280;15525;45.568;5.448;2022-10-16T03:41:38;98095.06;;;18.22;58.37
28267;BME280;15525;45.568;5.448;2022-10-16T03:44:03;98084.22;;;18.22;58.08
28267;BME280;15525;45.568;5.448;2022-10-16T03:46:29;98104.31;;;18.21;58.42
28267;BME280;15525;45.568;5.448;2022-10-16T03:48:54;98093.63;;;18.16;58.41
28267;BME280;15525;45.568;5.448;2022-10-16T03:51:20;98100.63;;;18.17;58.66
28267;BME280;15525;45.568;5.448;2022-10-16T03:53:46;98114.03;;;18.22;58.69
28267;BME280;15525;45.568;5.448;2022-10-16T03:56:11;98108.13;;;18.20;58.33
28267;BME280;15525;45.568;5.448;2022-10-16T03:58:37;98095.88;;;18.23;58.63
28267;BME280;15525;45.568;5.448;2022-10-16T04:01:02;98111.03;;;18.32;58.69
28267;BME280;15525;45.568;5.448;2022-10-16T04:03:27;98093.81;;;18.28;58.61
28267;BME280;15525;45.568;5.448;2022-10-16T04:05:53;98111.88;;;18.41;58.75
28267;BME280;15525;45.568;5.448;2022-10-16T04:08:19;98105.19;;;18.47;58.60
28267;BME280;15525;45.568;5.448;2022-10-16T04:10:44;98118.88;;;18.51;58.70
28267;BME280;15525;45.568;5.448;2022-10-16T04:13:10;98114.91;;;18.48;58.70
28267;BME280;15525;45.568;5.448;2022-10-16T04:15:35;98107.38;;;18.45;58.67
28267;BME280;15525;45.568;5.448;2022-10-16T04:18:01;98101.50;;;18.52;58.70
28267;BME280;15525;45.568;5.448;2022-10-16T04:20:26;98095.91;;;18.48;58.34
28267;BME280;15525;45.568;5.448;2022-10-16T04:22:51;98102.16;;;18.49;58.61
28267;BME280;15525;45.568;5.448;2022-10-16T04:25:17;98125.91;;;18.60;58.37
28267;BME280;15525;45.568;5.448;2022-10-16T04:27:42;98103.13;;;18.53;58.72
28267;BME280;15525;45.568;5.448;2022-10-16T04:30:08;98115.88;;;18.44;59.02
28267;BME280;15525;45.568;5.448;2022-10-16T04:32:33;98120.31;;;18.48;59.14
28267;BME280;15525;45.568;5.448;2022-10-16T04:34:59;98108.69;;;18.48;59.52
28267;BME280;15525;45.568;5.448;2022-10-16T04:37:25;98115.84;;;18.52;59.41
28267;BME280;15525;45.568;5.448;2022-10-16T04:39:52;98113.78;;;18.49;59.27
28267;BME280;15525;45.568;5.448;2022-10-16T04:42:18;98117.59;;;18.40;59.38
28267;BME280;15525;45.568;5.448;2022-10-16T04:44:44;98107.81;;;18.30;59.64
28267;BME280;15525;45.568;5.448;2022-10-16T04:47:09;98122.88;;;18.36;59.36
28267;BME280;15525;45.568;5.448;2022-10-16T04:49:34;98114.84;;;18.31;59.71
28267;BME280;15525;45.568;5.448;2022-10-16T04:52:00;98128.91;;;18.33;59.69
28267;BME280;15525;45.568;5.448;2022-10-16T04:54:25;98122.69;;;18.33;59.98
28267;BME280;15525;45.568;5.448;2022-10-16T04:56:51;98127.34;;;18.41;59.49
28267;BME280;15525;45.568;5.448;2022-10-16T04:59:18;98122.22;;;18.39;59.54
28267;BME280;15525;45.568;5.448;2022-10-16T05:01:44;98120.78;;;18.33;59.63
28267;BME280;15525;45.568;5.448;2022-10-16T05:04:10;98126.69;;;18.35;59.68
28267;BME280;15525;45.568;5.448;2022-10-16T05:06:36;98126.22;;;18.33;59.46
28267;BME280;15525;45.568;5.448;2022-10-16T05:09:02;98124.59;;;18.32;59.62
28267;BME280;15525;45.568;5.448;2022-10-16T05:11:28;98121.88;;;18.32;59.65
28267;BME280;15525;45.568;5.448;2022-10-16T05:13:53;98133.72;;;18.36;59.42
28267;BME280;15525;45.568;5.448;2022-10-16T05:16:18;98110.69;;;18.25;59.41
28267;BME280;15525;45.568;5.448;2022-10-16T05:18:44;98128.28;;;18.36;59.33
28267;BME280;15525;45.568;5.448;2022-10-16T05:21:09;98124.09;;;18.30;59.31
28267;BME280;15525;45.568;5.448;2022-10-16T05:23:35;98121.22;;;18.27;59.95
28267;BME280;15525;45.568;5.448;2022-10-16T05:26:00;98119.59;;;18.17;59.91
28267;BME280;15525;45.568;5.448;2022-10-16T05:28:27;98132.22;;;18.22;60.00
28267;BME280;15525;45.568;5.448;2022-10-16T05:30:53;98109.88;;;18.08;59.97
28267;BME280;15525;45.568;5.448;2022-10-16T05:33:23;98123.28;;;18.13;60.23
28267;BME280;15525;45.568;5.448;2022-10-16T05:35:48;98123.25;;;18.04;59.86
28267;BME280;15525;45.568;5.448;2022-10-16T05:38:15;98123.06;;;18.01;60.08
28267;BME280;15525;45.568;5.448;2022-10-16T05:40:40;98116.53;;;18.02;60.07
28267;BME280;15525;45.568;5.448;2022-10-16T05:43:06;98117.34;;;18.02;60.08
28267;BME280;15525;45.568;5.448;2022-10-16T05:45:31;98114.31;;;18.04;59.80
28267;BME280;15525;45.568;5.448;2022-10-16T05:47:57;98116.66;;;17.88;60.13
28267;BME280;15525;45.568;5.448;2022-10-16T05:50:22;98123.06;;;17.92;60.07
28267;BME280;15525;45.568;5.448;2022-10-16T05:52:47;98121.78;;;17.98;59.91
28267;BME280;15525;45.568;5.448;2022-10-16T05:55:13;98115.59;;;17.98;59.69
28267;BME280;15525;45.568;5.448;2022-10-16T05:57:38;98112.88;;;18.06;60.08
28267;BME280;15525;45.568;5.448;2022-10-16T06:00:04;98119.44;;;18.14;59.71
28267;BME280;15525;45.568;5.448;2022-10-16T06:02:30;98107.47;;;18.06;59.42
28267;BME280;15525;45.568;5.448;2022-10-16T06:04:55;98114.81;;;18.14;59.58
28267;BME280;15525;45.568;5.448;2022-10-16T06:07:22;98115.59;;;18.06;59.65
28267;BME280;15525;45.568;5.448;2022-10-16T06:09:49;98114.00;;;18.05;59.52
28267;BME280;15525;45.568;5.448;2022-10-16T06:12:15;98131.72;;;18.11;59.73
28267;BME280;15525;45.568;5.448;2022-10-16T06:14:40;98132.97;;;18.05;59.97
28267;BME280;15525;45.568;5.448;2022-10-16T06:17:06;98145.09;;;18.08;59.87
28267;BME280;15525;45.568;5.448;2022-10-16T06:19:31;98155.13;;;18.07;60.06
28267;BME280;15525;45.568;5.448;2022-10-16T06:21:57;98139.47;;;17.96;60.09
28267;BME280;15525;45.568;5.448;2022-10-16T06:24:24;98139.31;;;18.01;60.26
28267;BME280;15525;45.568;5.448;2022-10-16T06:26:49;98136.16;;;18.07;59.86
28267;BME280;15525;45.568;5.448;2022-10-16T06:29:14;98132.81;;;18.10;60.01
28267;BME280;15525;45.568;5.448;2022-10-16T06:31:40;98147.97;;;18.11;60.28
28267;BME280;15525;45.568;5.448;2022-10-16T06:34:05;98161.53;;;18.20;60.05
28267;BME280;15525;45.568;5.448;2022-10-16T06:36:34;98153.22;;;18.16;60.10
28267;BME280;15525;45.568;5.448;2022-10-16T06:39:00;98167.44;;;18.22;59.90
28267;BME280;15525;45.568;5.448;2022-10-16T06:41:25;98170.66;;;18.32;59.73
28267;BME280;15525;45.568;5.448;2022-10-16T06:43:51;98166.88;;;18.33;59.41
28267;BME280;15525;45.568;5.448;2022-10-16T06:46:19;98169.09;;;18.40;59.72
28267;BME280;15525;45.568;5.448;2022-10-16T06:48:45;98169.13;;;18.48;59.50
28267;BME280;15525;45.568;5.448;2022-10-16T06:51:12;98165.63;;;18.56;59.49
28267;BME280;15525;45.568;5.448;2022-10-16T06:53:40;98161.16;;;18.60;59.39
28267;BME280;15525;45.568;5.448;2022-10-16T06:56:08;98161.16;;;18.69;59.37
28267;BME280;15525;45.568;5.448;2022-10-16T06:58:33;98156.25;;;18.71;59.18
28267;BME280;15525;45.568;5.448;2022-10-16T07:00:59;98154.47;;;18.83;59.03
28267;BME280;15525;45.568;5.448;2022-10-16T07:03:24;98165.97;;;18.97;58.79
28267;BME280;15525;45.568;5.448;2022-10-16T07:05:49;98166.44;;;19.08;58.85
28267;BME280;15525;45.568;5.448;2022-10-16T07:08:15;98170.56;;;19.14;58.71
28267;BME280;15525;45.568;5.448;2022-10-16T07:10:40;98181.13;;;19.24;58.94
28267;BME280;15525;45.568;5.448;2022-10-16T07:13:05;98181.28;;;19.27;58.61
28267;BME280;15525;45.568;5.448;2022-10-16T07:15:33;98181.13;;;19.32;58.63
28267;BME280;15525;45.568;5.448;2022-10-16T07:17:59;98209.03;;;19.50;58.83
28267;BME280;15525;45.568;5.448;2022-10-16T07:20:24;98200.88;;;19.58;58.84
28267;BME280;15525;45.568;5.448;2022-10-16T07:22:50;98194.16;;;19.64;58.53
28267;BME280;15525;45.568;5.448;2022-10-16T07:25:16;98195.25;;;19.63;58.92
28267;BME280;15525;45.568;5.448;2022-10-16T07:27:41;98214.69;;;19.91;58.67
28267;BME280;15525;45.568;5.448;2022-10-16T07:30:07;98207.31;;;20.00;58.39
28267;BME280;15525;45.568;5.448;2022-10-16T07:32:32;98220.16;;;20.28;58.28
28267;BME280;15525;45.568;5.448;2022-10-16T07:34:58;98207.59;;;20.44;57.64
28267;BME280;15525;45.568;5.448;2022-10-16T07:37:23;98227.19;;;20.58;57.77
28267;BME280;15525;45.568;5.448;2022-10-16T07:39:49;98222.31;;;20.72;57.79
28267;BME280;15525;45.568;5.448;2022-10-16T07:42:14;98230.06;;;20.91;57.48
28267;BME280;15525;45.568;5.448;2022-10-16T07:44:40;98218.44;;;20.73;57.88
28267;BME280;15525;45.568;5.448;2022-10-16T07:47:06;98234.09;;;21.06;57.27
28267;BME280;15525;45.568;5.448;2022-10-16T07:49:31;98234.44;;;21.25;57.01
28267;BME280;15525;45.568;5.448;2022-10-16T07:51:57;98221.78;;;21.41;56.91
28267;BME280;15525;45.568;5.448;2022-10-16T07:54:22;98252.06;;;21.60;56.81
28267;BME280;15525;45.568;5.448;2022-10-16T07:56:47;98246.47;;;21.77;56.53
28267;BME280;15525;45.568;5.448;2022-10-16T07:59:13;98247.19;;;21.98;56.12
28267;BME280;15525;45.568;5.448;2022-10-16T08:01:38;98252.69;;;22.10;56.05
28267;BME280;15525;45.568;5.448;2022-10-16T08:04:05;98252.25;;;22.20;56.02
28267;BME280;15525;45.568;5.448;2022-10-16T08:06:35;98265.34;;;22.38;55.74
28267;BME280;15525;45.568;5.448;2022-10-16T08:09:00;98255.94;;;22.48;55.49
28267;BME280;15525;45.568;5.448;2022-10-16T08:11:26;98254.13;;;22.52;55.21
28267;BME280;15525;45.568;5.448;2022-10-16T08:13:51;98264.69;;;22.77;55.01
28267;BME280;15525;45.568;5.448;2022-10-16T08:16:16;98262.06;;;22.93;54.53
28267;BME280;15525;45.568;5.448;2022-10-16T08:18:42;98277.59;;;23.16;54.13
28267;BME280;15525;45.568;5.448;2022-10-16T08:21:13;98256.91;;;23.15;53.23
28267;BME280;15525;45.568;5.448;2022-10-16T08:23:39;98273.25;;;23.39;52.87
28267;BME280;15525;45.568;5.448;2022-10-16T08:26:06;98276.34;;;23.65;52.50
28267;BME280;15525;45.568;5.448;2022-10-16T08:28:32;98279.34;;;23.76;52.16
28267;BME280;15525;45.568;5.448;2022-10-16T08:31:08;98271.41;;;23.71;52.23
28267;BME280;15525;45.568;5.448;2022-10-16T08:33:34;98255.91;;;23.75;52.22
28267;BME280;15525;45.568;5.448;2022-10-16T08:36:01;98271.34;;;23.95;51.56
28267;BME280;15525;45.568;5.448;2022-10-16T08:38:26;98267.66;;;24.18;51.17
28267;BME280;15525;45.568;5.448;2022-10-16T08:40:56;98273.22;;;24.37;50.67
28267;BME280;15525;45.568;5.448;2022-10-16T08:43:40;98257.59;;;24.53;50.50
28267;BME280;15525;45.568;5.448;2022-10-16T08:48:57;98261.88;;;24.66;50.21
28267;BME280;15525;45.568;5.448;2022-10-16T08:51:27;98272.25;;;24.92;49.89
28267;BME280;15525;45.568;5.448;2022-10-16T08:53:59;98268.84;;;25.14;49.38
28267;BME280;15525;45.568;5.448;2022-10-16T08:56:27;98278.63;;;25.30;49.25
28267;BME280;15525;45.568;5.448;2022-10-16T08:58:53;98281.00;;;25.32;49.25
28267;BME280;15525;45.568;5.448;2022-10-16T09:01:21;98285.69;;;25.50;49.01
28267;BME280;15525;45.568;5.448;2022-10-16T09:04:04;98279.69;;;25.45;48.65
28267;BME280;15525;45.568;5.448;2022-10-16T09:06:45;98280.84;;;25.63;48.63
28267;BME280;15525;45.568;5.448;2022-10-16T09:12:33;98277.75;;;25.83;48.08
28267;BME280;15525;45.568;5.448;2022-10-16T09:19:51;98264.31;;;26.39;46.58
28267;BME280;15525;45.568;5.448;2022-10-16T09:22:21;98259.72;;;26.46;46.68
28267;BME280;15525;45.568;5.448;2022-10-16T09:24:50;98268.31;;;26.45;46.67
28267;BME280;15525;45.568;5.448;2022-10-16T09:27:15;98265.66;;;26.71;46.05
28267;BME280;15525;45.568;5.448;2022-10-16T09:29:41;98265.00;;;26.81;45.99
28267;BME280;15525;45.568;5.448;2022-10-16T09:32:16;98264.69;;;27.12;44.98
28267;BME280;15525;45.568;5.448;2022-10-16T09:34:49;98274.59;;;27.46;44.79
28267;BME280;15525;45.568;5.448;2022-10-16T09:37:19;98265.84;;;27.37;44.21
28267;BME280;15525;45.568;5.448;2022-10-16T09:42:30;98267.63;;;27.81;42.17
28267;BME280;15525;45.568;5.448;2022-10-16T09:44:56;98278.88;;;27.73;42.82
28267;BME280;15525;45.568;5.448;2022-10-16T09:47:30;98278.00;;;27.65;42.05
28267;BME280;15525;45.568;5.448;2022-10-16T09:49:58;98287.84;;;27.66;42.10
28267;BME280;15525;45.568;5.448;2022-10-16T09:52:27;98291.75;;;27.65;41.78
28267;BME280;15525;45.568;5.448;2022-10-16T09:54:59;98295.34;;;27.99;40.45
28267;BME280;15525;45.568;5.448;2022-10-16T09:57:25;98297.56;;;28.23;40.57
28267;BME280;15525;45.568;5.448;2022-10-16T09:59:53;98295.56;;;28.60;40.27
28267;BME280;15525;45.568;5.448;2022-10-16T10:02:23;98296.19;;;28.87;39.49
28267;BME280;15525;45.568;5.448;2022-10-16T10:04:54;98293.59;;;29.04;39.76
28267;BME280;15525;45.568;5.448;2022-10-16T10:07:38;98280.25;;;29.17;38.20
28267;BME280;15525;45.568;5.448;2022-10-16T10:10:06;98291.28;;;29.13;39.13
28267;BME280;15525;45.568;5.448;2022-10-16T10:12:44;98286.22;;;29.22;38.96
28267;BME280;15525;45.568;5.448;2022-10-16T10:15:12;98286.75;;;28.88;38.76
28267;BME280;15525;45.568;5.448;2022-10-16T10:20:35;98294.59;;;28.86;37.93
28267;BME280;15525;45.568;5.448;2022-10-16T10:23:35;98280.16;;;28.99;37.90
28267;BME280;15525;45.568;5.448;2022-10-16T10:26:14;98288.19;;;29.22;37.75
28267;BME280;15525;45.568;5.448;2022-10-16T10:32:54;98278.63;;;29.05;38.42
28267;BME280;15525;45.568;5.448;2022-10-16T10:37:37;98289.75;;;28.69;38.02
28267;BME280;15525;45.568;5.448;2022-10-16T10:40:28;98284.72;;;28.78;38.32
28267;BME280;15525;45.568;5.448;2022-10-16T10:43:22;98276.81;;;28.76;38.10
28267;BME280;15525;45.568;5.448;2022-10-16T10:46:00;98281.59;;;28.86;37.55
28267;BME280;15525;45.568;5.448;2022-10-16T10:51:44;98283.38;;;29.05;37.84
28267;BME280;15525;45.568;5.448;2022-10-16T10:54:22;98274.81;;;29.27;37.23
28267;BME280;15525;45.568;5.448;2022-10-16T10:56:57;98271.75;;;29.46;37.40
28267;BME280;15525;45.568;5.448;2022-10-16T10:59:31;98272.56;;;29.54;36.77
28267;BME280;15525;45.568;5.448;2022-10-16T11:07:33;98259.03;;;30.13;36.02
28267;BME280;15525;45.568;5.448;2022-10-16T11:10:12;98252.66;;;30.02;35.06
28267;BME280;15525;45.568;5.448;2022-10-16T11:12:42;98258.97;;;30.06;35.41
28267;BME280;15525;45.568;5.448;2022-10-16T11:15:16;98255.13;;;30.21;35.53
28267;BME280;15525;45.568;5.448;2022-10-16T11:20:39;98246.41;;;30.12;35.10
28267;BME280;15525;45.568;5.448;2022-10-16T11:26:33;98264.56;;;30.20;35.17
28267;BME280;15525;45.568;5.448;2022-10-16T11:29:00;98249.56;;;30.14;35.48
28267;BME280;15525;45.568;5.448;2022-10-16T11:31:38;98249.22;;;30.40;34.63
28267;BME280;15525;45.568;5.448;2022-10-16T11:34:25;98252.34;;;30.42;34.69
28267;BME280;15525;45.568;5.448;2022-10-16T11:37:02;98236.94;;;30.59;34.77
28267;BME280;15525;45.568;5.448;2022-10-16T11:39:30;98251.88;;;30.09;35.12
28267;BME280;15525;45.568;5.448;2022-10-16T11:43:04;98243.66;;;30.30;35.05
28267;BME280;15525;45.568;5.448;2022-10-16T11:45:13;98240.13;;;30.71;34.59
28267;BME280;15525;45.568;5.448;2022-10-16T11:50:48;98244.88;;;30.57;34.60
28267;BME280;15525;45.568;5.448;2022-10-16T11:55:46;98248.28;;;29.80;35.22
28267;BME280;15525;45.568;5.448;2022-10-16T12:06:55;98239.91;;;29.63;35.00
28267;BME280;15525;45.568;5.448;2022-10-16T12:09:26;98233.13;;;29.50;35.40
28267;BME280;15525;45.568;5.448;2022-10-16T12:11:52;98232.47;;;29.77;35.25
28267;BME280;15525;45.568;5.448;2022-10-16T12:14:20;98226.63;;;30.10;34.81
28267;BME280;15525;45.568;5.448;2022-10-16T12:16:52;98231.03;;;30.15;34.81
28267;BME280;15525;45.568;5.448;2022-10-16T12:19:21;98234.50;;;29.94;34.93
28267;BME280;15525;45.568;5.448;2022-10-16T12:21:46;98219.66;;;29.31;36.05
28267;BME280;15525;45.568;5.448;2022-10-16T12:24:32;98224.41;;;29.30;35.83
28267;BME280;15525;45.568;5.448;2022-10-16T12:26:58;98234.59;;;29.23;35.75
28267;BME280;15525;45.568;5.448;2022-10-16T12:29:34;98226.03;;;29.42;35.76
28267;BME280;15525;45.568;5.448;2022-10-16T12:32:00;98232.34;;;29.46;35.32
28267;BME280;15525;45.568;5.448;2022-10-16T12:34:42;98236.38;;;29.62;34.79
28267;BME280;15525;45.568;5.448;2022-10-16T12:37:26;98215.13;;;29.70;34.79
28267;BME280;15525;45.568;5.448;2022-10-16T12:39:54;98230.69;;;29.27;35.45
28267;BME280;15525;45.568;5.448;2022-10-16T12:46:46;98216.56;;;29.39;35.75
28267;BME280;15525;45.568;5.448;2022-10-16T12:51:37;98222.03;;;29.32;35.80
28267;BME280;15525;45.568;5.448;2022-10-16T12:54:18;98209.97;;;29.68;35.35
28267;BME280;15525;45.568;5.448;2022-10-16T12:57:06;98223.84;;;29.89;35.09
28267;BME280;15525;45.568;5.448;2022-10-16T13:11:16;98211.31;;;30.44;33.60
28267;BME280;15525;45.568;5.448;2022-10-16T13:19:07;98202.19;;;30.89;32.89
28267;BME280;15525;45.568;5.448;2022-10-16T13:27:46;98208.16;;;30.39;33.57
28267;BME280;15525;45.568;5.448;2022-10-16T13:30:25;98201.81;;;30.17;34.01
28267;BME280;15525;45.568;5.448;2022-10-16T13:33:15;98214.44;;;30.36;33.77
28267;BME280;15525;45.568;5.448;2022-10-16T13:35:51;98207.34;;;30.28;34.01
28267;BME280;15525;45.568;5.448;2022-10-16T13:38:19;98210.13;;;30.45;33.74
28267;BME280;15525;45.568;5.448;2022-10-16T13:41:15;98197.06;;;30.63;33.67
28267;BME280;15525;45.568;5.448;2022-10-16T13:43:46;98204.16;;;30.19;34.00
28267;BME280;15525;45.568;5.448;2022-10-16T13:46:18;98210.09;;;30.14;34.42
28267;BME280;15525;45.568;5.448;2022-10-16T13:49:02;98204.09;;;29.91;34.51
28267;BME280;15525;45.568;5.448;2022-10-16T13:51:29;98204.47;;;29.72;34.81
28267;BME280;15525;45.568;5.448;2022-10-16T13:53:55;98204.09;;;29.80;35.19
28267;BME280;15525;45.568;5.448;2022-10-16T13:56:25;98219.97;;;30.25;34.39
28267;BME280;15525;45.568;5.448;2022-10-16T13:59:06;98203.38;;;30.50;34.21
28267;BME280;15525;45.568;5.448;2022-10-16T14:01:47;98213.66;;;30.25;34.61
28267;BME280;15525;45.568;5.448;2022-10-16T14:04:13;98210.44;;;30.05;34.80
28267;BME280;15525;45.568;5.448;2022-10-16T14:06:41;98220.75;;;30.19;34.92
28267;BME280;15525;45.568;5.448;2022-10-16T14:09:24;98222.34;;;30.37;34.84
28267;BME280;15525;45.568;5.448;2022-10-16T14:12:03;98216.81;;;30.30;34.50
28267;BME280;15525;45.568;5.448;2022-10-16T14:14:40;98211.28;;;30.37;34.49
28267;BME280;15525;45.568;5.448;2022-10-16T14:17:16;98218.78;;;30.47;34.40
28267;BME280;15525;45.568;5.448;2022-10-16T14:19:46;98229.47;;;30.59;34.39
28267;BME280;15525;45.568;5.448;2022-10-16T14:22:32;98230.66;;;30.62;34.69
28267;BME280;15525;45.568;5.448;2022-10-16T14:24:58;98235.78;;;30.81;34.45
28267;BME280;15525;45.568;5.448;2022-10-16T14:27:31;98230.63;;;31.00;34.38
28267;BME280;15525;45.568;5.448;2022-10-16T14:30:23;98235.31;;;31.24;34.08
28267;BME280;15525;45.568;5.448;2022-10-16T14:33:00;98240.09;;;30.19;35.52
28267;BME280;15525;45.568;5.448;2022-10-16T14:35:29;98238.13;;;30.47;35.36
28267;BME280;15525;45.568;5.448;2022-10-16T14:37:55;98236.56;;;30.95;34.68
28267;BME280;15525;45.568;5.448;2022-10-16T14:40:25;98232.56;;;31.17;34.33
28267;BME280;15525;45.568;5.448;2022-10-16T14:42:52;98230.19;;;31.09;34.29
28267;BME280;15525;45.568;5.448;2022-10-16T14:45:20;98237.34;;;30.50;35.24
28267;BME280;15525;45.568;5.448;2022-10-16T14:47:52;98231.84;;;30.85;34.99
28267;BME280;15525;45.568;5.448;2022-10-16T14:50:19;98232.66;;;30.68;35.16
28267;BME280;15525;45.568;5.448;2022-10-16T14:52:44;98235.38;;;30.61;35.18
28267;BME280;15525;45.568;5.448;2022-10-16T14:55:10;98222.75;;;30.85;35.03